Terminal Aerodrome Forecast
Issued by NWS

Home | Current Version | Previous Version | Text Only | Print | Product List | Glossary On
Versions: 1 2 3 4 5 6 7 8 9 10 11 12 13 14 15 16 17 18 19 20 21 22 23 24 25 26 27 28 29 30 31 32 33 34 35 36 37 38 39 40 41
000
FTUS43 KMKX 281124
TAFUES
TAF
KUES 281124Z 2812/2912 00000KT P6SM FEW250
     FM281500 14007KT P6SM FEW250
     FM281900 13011KT P6SM BKN250
     FM290600 17005KT P6SM -SHRA VCTS SCT050CB BKN090
     FM290900 19005KT 6SM -TSRA BR BKN045CB OVC080
     FM291100 22004KT 5SM -SHRA BR VCTS BKN045CB OVC070=

USA.gov is the U.S. government's official web portal to all federal, state and local government web resources and services.